createdAt,value
2016-08-03T00:00:43.220Z,65.78
2016-08-03T00:01:43.228Z,66.17
2016-08-03T00:02:43.237Z,66.27
2016-08-03T00:03:43.242Z,65.78
2016-08-03T00:04:42.545Z,65.88
2016-08-03T00:05:42.545Z,66.85
2016-08-03T00:06:44.381Z,66.56
2016-08-03T00:07:42.552Z,66.56
2016-08-03T00:08:43.356Z,66.27
2016-08-03T00:09:42.564Z,66.85
2016-08-03T00:10:42.566Z,66.66
2016-08-03T00:11:43.282Z,66.56
2016-08-03T00:12:42.627Z,66.85
2016-08-03T00:14:43.298Z,67.43
2016-08-03T00:15:43.302Z,66.94
2016-08-03T00:16:42.599Z,66.46
2016-08-03T00:17:43.844Z,66.66
2016-08-03T00:18:42.611Z,66.75
2016-08-03T00:19:43.523Z,66.75
2016-08-03T00:20:42.669Z,66.46
2016-08-03T00:21:43.333Z,67.43
2016-08-03T00:22:42.628Z,67.04
2016-08-03T00:23:43.343Z,66.85
2016-08-03T00:24:57.531Z,66.56
2016-08-03T00:25:42.646Z,66.17
2016-08-03T00:26:43.367Z,66.17
2016-08-03T00:27:43.362Z,66.56
2016-08-03T00:28:44.471Z,66.36
2016-08-03T00:29:43.373Z,66.66
2016-08-03T00:30:43.378Z,65.98
2016-08-03T00:31:43.388Z,66.56
2016-08-03T00:32:42.688Z,66.56
2016-08-03T00:33:43.411Z,66.94
2016-08-03T00:34:42.794Z,66.85
2016-08-03T00:35:43.407Z,67.52
2016-08-03T00:36:43.413Z,67.14
2016-08-03T00:37:43.417Z,67.33
2016-08-03T00:38:42.713Z,66.46
2016-08-03T00:39:44.548Z,66.56
2016-08-03T00:40:43.429Z,66.85
2016-08-03T00:41:43.580Z,66.36
2016-08-03T00:42:43.445Z,66.56
2016-08-03T00:44:43.451Z,66.27
2016-08-03T00:45:42.751Z,66.17
2016-08-03T00:46:43.461Z,66.08
2016-08-03T00:47:43.470Z,65.59
2016-08-03T00:48:43.479Z,66.11
2016-08-03T00:49:43.477Z,65.69
2016-08-03T00:50:42.777Z,65.88
2016-08-03T00:51:42.783Z,65.98
2016-08-03T00:52:43.943Z,66.36
2016-08-03T00:53:43.503Z,65.88
2016-08-03T00:54:59.730Z,65.98
2016-08-03T00:55:43.512Z,66.08
2016-08-03T00:56:42.808Z,65.98
2016-08-03T00:57:42.814Z,66.27
2016-08-03T00:59:42.825Z,66.27
2016-08-03T01:00:42.832Z,66.36
2016-08-03T01:01:44.279Z,66.46
2016-08-03T01:02:43.549Z,66.85
2016-08-03T01:03:44.004Z,66.17
2016-08-03T01:04:42.854Z,66.27
2016-08-03T01:05:43.566Z,65.98
2016-08-03T01:06:42.870Z,66.56
2016-08-03T01:07:42.868Z,66.66
2016-08-03T01:08:43.580Z,66.66
2016-08-03T01:09:42.879Z,65.88
2016-08-03T01:10:43.592Z,65.98
2016-08-03T01:11:42.893Z,65.98
2016-08-03T01:12:42.899Z,65.69
2016-08-03T01:13:43.607Z,65.98
2016-08-03T01:14:43.908Z,65.88
2016-08-03T01:15:43.625Z,65.69
2016-08-03T01:16:42.918Z,65.78
2016-08-03T01:17:43.629Z,66.17
2016-08-03T01:18:42.926Z,65.98
2016-08-03T01:19:42.934Z,66.27
2016-08-03T01:20:43.644Z,65.88
2016-08-03T01:21:42.941Z,65.98
2016-08-03T01:22:43.655Z,66.66
2016-08-03T01:23:44.185Z,65.98
2016-08-03T01:24:43.717Z,66.46
2016-08-03T01:25:43.978Z,66.46
2016-08-03T01:26:42.971Z,65.78
2016-08-03T01:27:43.682Z,65.88
2016-08-03T01:28:43.687Z,65.98
2016-08-03T01:29:43.699Z,66.85
2016-08-03T01:30:42.992Z,66.36
2016-08-03T01:31:42.996Z,66.46
2016-08-03T01:32:43.003Z,66.56
2016-08-03T01:33:43.007Z,66.75
2016-08-03T01:34:45.002Z,66.75
2016-08-03T01:35:43.067Z,66.85
2016-08-03T01:36:43.822Z,66.75
2016-08-03T01:37:43.734Z,66.85
2016-08-03T01:38:43.035Z,66.94
2016-08-03T01:39:43.748Z,66.46
2016-08-03T01:40:43.750Z,66.46
2016-08-03T01:41:43.048Z,65.98
2016-08-03T01:42:43.760Z,66.66
2016-08-03T01:43:43.057Z,66.27
2016-08-03T01:44:43.064Z,66.08
2016-08-03T01:45:44.905Z,66.75
2016-08-03T01:46:43.072Z,66.75
2016-08-03T01:47:43.988Z,66.46
2016-08-03T01:48:43.086Z,66.66
2016-08-03T01:49:43.798Z,66.46
2016-08-03T01:50:43.803Z,66.85
2016-08-03T01:51:43.807Z,66.85
2016-08-03T01:52:43.813Z,66.46
2016-08-03T01:53:43.816Z,65.69
2016-08-03T01:54:43.824Z,65.88
2016-08-03T01:55:43.121Z,66.17
2016-08-03T01:56:44.807Z,66.36
2016-08-03T01:57:43.839Z,66.36
2016-08-03T01:58:43.137Z,66.56
2016-08-03T01:59:43.854Z,66.36
2016-08-03T02:00:43.163Z,66.75
2016-08-03T02:01:43.859Z,65.98
2016-08-03T02:02:43.157Z,65.78
2016-08-03T02:03:43.873Z,66.27
2016-08-03T02:04:43.879Z,66.17
2016-08-03T02:05:43.172Z,66.08
2016-08-03T02:06:43.885Z,66.17
2016-08-03T02:07:44.863Z,65.78
2016-08-03T02:08:43.190Z,65.78
2016-08-03T02:09:44.806Z,66.27
2016-08-03T02:10:43.910Z,65.98
2016-08-03T02:11:43.207Z,66.17
2016-08-03T02:12:43.920Z,65.88
2016-08-03T02:13:43.218Z,66.75
2016-08-03T02:14:43.926Z,66.66
2016-08-03T02:15:43.225Z,66.85
2016-08-03T02:16:43.948Z,66.94
2016-08-03T02:17:43.943Z,65.78
2016-08-03T02:18:43.301Z,66.17
2016-08-03T02:19:43.259Z,66.75
2016-08-03T02:20:43.251Z,66.27
2016-08-03T02:21:43.963Z,66.56
2016-08-03T02:22:43.970Z,66.46
2016-08-03T02:23:43.268Z,66.56
2016-08-03T02:24:43.980Z,66.27
2016-08-03T02:25:44.036Z,66.56
2016-08-03T02:26:43.282Z,66.85
2016-08-03T02:27:43.993Z,66.56
2016-08-03T02:28:43.295Z,65.98
2016-08-03T02:29:44.004Z,66.66
2016-08-03T02:30:43.304Z,66.94
2016-08-03T02:31:44.018Z,66.85
2016-08-03T02:32:44.021Z,66.36
2016-08-03T02:33:44.028Z,66.56
2016-08-03T02:34:44.033Z,66.36
2016-08-03T02:35:44.139Z,66.56
2016-08-03T02:36:44.094Z,66.56
2016-08-03T02:37:43.340Z,66.56
2016-08-03T02:38:44.055Z,66.66
2016-08-03T02:39:43.352Z,66.66
2016-08-03T02:40:44.063Z,66.85
2016-08-03T02:41:43.365Z,66.46
2016-08-03T02:42:44.073Z,66.56
2016-08-03T02:43:44.081Z,65.98
2016-08-03T02:44:44.086Z,66.56
2016-08-03T02:45:43.385Z,66.56
2016-08-03T02:46:43.386Z,66.56
2016-08-03T02:47:44.100Z,66.08
2016-08-03T02:48:44.106Z,66.17
2016-08-03T02:49:44.111Z,66.08
2016-08-03T02:50:43.409Z,66.75
2016-08-03T02:51:44.124Z,66.27
2016-08-03T02:52:44.127Z,65.88
2016-08-03T02:53:44.133Z,66.17
2016-08-03T02:54:44.141Z,66.27
2016-08-03T02:55:44.145Z,66.17
2016-08-03T02:56:44.150Z,66.56
2016-08-03T02:57:44.156Z,65.78
2016-08-03T02:58:44.160Z,66.27
2016-08-03T02:59:44.163Z,66.36
2016-08-03T03:00:44.170Z,66.56
2016-08-03T03:01:44.178Z,66.75
2016-08-03T03:02:43.777Z,66.27
2016-08-03T03:03:44.190Z,66.46
2016-08-03T03:04:44.191Z,66.75
2016-08-03T03:05:43.492Z,66.66
2016-08-03T03:06:44.202Z,66.85
2016-08-03T03:07:43.500Z,67.04
2016-08-03T03:08:44.215Z,66.66
2016-08-03T03:09:44.219Z,66.56
2016-08-03T03:10:43.514Z,66.46
2016-08-03T03:11:44.227Z,65.88
2016-08-03T03:12:44.232Z,65.78
2016-08-03T03:13:43.584Z,65.98
2016-08-03T03:14:44.242Z,66.46
2016-08-03T03:15:45.401Z,66.17
2016-08-03T03:16:43.550Z,66.66
2016-08-03T03:17:43.553Z,65.88
2016-08-03T03:18:44.266Z,66.46
2016-08-03T03:19:44.270Z,65.98
2016-08-03T03:20:44.276Z,66.08
2016-08-03T03:21:43.572Z,66.17
2016-08-03T03:22:44.282Z,65.88
2016-08-03T03:23:43.585Z,66.75
2016-08-03T03:24:46.195Z,66.66
2016-08-03T03:25:43.596Z,66.66
2016-08-03T03:26:45.418Z,67.04
2016-08-03T03:27:44.328Z,66.85
2016-08-03T03:28:44.318Z,66.94
2016-08-03T03:29:44.321Z,66.46
2016-08-03T03:30:43.622Z,66.66
2016-08-03T03:31:44.332Z,66.75
2016-08-03T03:32:44.334Z,66.66
2016-08-03T03:33:44.341Z,66.66
2016-08-03T03:34:44.349Z,66.56
2016-08-03T03:35:43.647Z,66.85
2016-08-03T03:36:44.409Z,66.85
2016-08-03T03:37:45.415Z,66.36
2016-08-03T03:38:44.371Z,66.94
2016-08-03T03:39:43.672Z,66.85
2016-08-03T03:40:43.672Z,66.46
2016-08-03T03:41:44.386Z,66.36
2016-08-03T03:42:44.393Z,66.75
2016-08-03T03:43:43.684Z,66.46
2016-08-03T03:44:43.692Z,66.56
2016-08-03T03:45:44.409Z,66.66
2016-08-03T03:46:44.411Z,66.75
2016-08-03T03:47:44.004Z,66.85
2016-08-03T03:48:43.714Z,66.27
2016-08-03T03:49:43.718Z,66.94
2016-08-03T03:50:44.430Z,66.94
2016-08-03T03:51:43.729Z,66.94
2016-08-03T03:52:43.733Z,66.94
2016-08-03T03:53:44.447Z,67.04
2016-08-03T03:54:44.452Z,66.85
2016-08-03T03:55:44.457Z,66.46
2016-08-03T03:56:43.753Z,66.75
2016-08-03T03:57:44.258Z,66.85
2016-08-03T03:58:44.470Z,66.56
2016-08-03T03:59:44.490Z,66.46
2016-08-03T04:00:43.776Z,66.75
2016-08-03T04:01:44.487Z,66.27
2016-08-03T04:02:43.785Z,66.66
2016-08-03T04:03:44.499Z,66.56
2016-08-03T04:04:44.499Z,66.75
2016-08-03T04:05:43.808Z,66.66
2016-08-03T04:06:43.807Z,66.66
2016-08-03T04:07:44.517Z,66.66
2016-08-03T04:08:44.668Z,66.17
2016-08-03T04:09:43.824Z,65.98
2016-08-03T04:10:44.542Z,65.88
2016-08-03T04:11:43.835Z,66.27
2016-08-03T04:12:43.843Z,66.46
2016-08-03T04:13:44.551Z,66.56
2016-08-03T04:14:44.561Z,66.85
2016-08-03T04:15:43.855Z,66.36
2016-08-03T04:16:43.860Z,66.56
2016-08-03T04:17:44.569Z,66.56
2016-08-03T04:18:43.873Z,66.75
2016-08-03T04:19:43.882Z,66.66
2016-08-03T04:20:44.688Z,66.75
2016-08-03T04:21:44.138Z,66.56
2016-08-03T04:22:43.892Z,66.46
2016-08-03T04:23:43.897Z,65.98
2016-08-03T04:24:44.611Z,66.66
2016-08-03T04:25:43.911Z,66.85
2016-08-03T04:26:44.622Z,67.33
2016-08-03T04:27:43.921Z,66.46
2016-08-03T04:28:43.932Z,66.85
2016-08-03T04:29:44.731Z,66.46
2016-08-03T04:30:43.934Z,66.85
2016-08-03T04:31:43.938Z,66.94
2016-08-03T04:32:44.912Z,66.56
2016-08-03T04:33:43.963Z,66.46
2016-08-03T04:34:44.663Z,66.56
2016-08-03T04:35:43.963Z,66.56
2016-08-03T04:36:44.017Z,66.36
2016-08-03T04:37:43.972Z,66.46
2016-08-03T04:38:44.683Z,66.36
2016-08-03T04:39:44.690Z,67.33
2016-08-03T04:40:44.743Z,66.56
2016-08-03T04:41:45.397Z,66.66
2016-08-03T04:42:43.997Z,65.69
2016-08-03T04:43:45.060Z,66.08
2016-08-03T04:44:44.027Z,66.27
2016-08-03T04:45:44.725Z,66.46
2016-08-03T04:46:44.021Z,67.04
2016-08-03T04:47:44.027Z,66.46
2016-08-03T04:48:44.737Z,66.94
2016-08-03T04:49:44.745Z,66.36
2016-08-03T04:50:44.040Z,66.56
2016-08-03T04:51:44.806Z,66.56
2016-08-03T04:52:45.660Z,66.66
2016-08-03T04:53:44.765Z,67.33
2016-08-03T04:54:45.171Z,66.85
2016-08-03T04:55:44.067Z,67.43
2016-08-03T04:56:44.075Z,66.75
2016-08-03T04:57:44.219Z,66.46
2016-08-03T04:58:44.793Z,66.66
2016-08-03T04:59:44.092Z,66.36
2016-08-03T05:00:44.809Z,66.75
2016-08-03T05:01:44.837Z,66.36
2016-08-03T05:02:44.815Z,66.46
2016-08-03T05:03:44.113Z,66.17
2016-08-03T05:04:44.824Z,65.88
2016-08-03T05:05:45.530Z,66.66
2016-08-03T05:06:44.128Z,66.27
2016-08-03T05:07:44.136Z,66.94
2016-08-03T05:08:44.843Z,67.52
2016-08-03T05:09:44.848Z,67.04
2016-08-03T05:10:44.158Z,67.33
2016-08-03T05:11:44.862Z,67.14
2016-08-03T05:12:44.866Z,67.52
2016-08-03T05:13:44.168Z,67.43
2016-08-03T05:14:44.166Z,67.04
2016-08-03T05:15:44.881Z,67.62
2016-08-03T05:16:44.182Z,67.33
2016-08-03T05:17:44.889Z,67.33
2016-08-03T05:18:44.188Z,67.14
2016-08-03T05:19:44.193Z,67.52
2016-08-03T05:20:44.198Z,67.33
2016-08-03T05:21:44.910Z,67.62
2016-08-03T05:22:44.918Z,67.82
2016-08-03T05:23:44.921Z,67.33
2016-08-03T05:24:44.228Z,67.43
2016-08-03T05:25:44.931Z,66.66
2016-08-03T05:26:44.936Z,66.75
2016-08-03T05:27:45.741Z,66.46
2016-08-03T05:28:44.243Z,67.14
2016-08-03T05:29:44.954Z,67.43
2016-08-03T05:30:44.252Z,67.33
2016-08-03T05:31:44.966Z,66.66
2016-08-03T05:32:44.970Z,67.82
2016-08-03T05:33:44.268Z,67.91
2016-08-03T05:34:44.978Z,68.68
2016-08-03T05:35:44.278Z,67.82
2016-08-03T05:36:44.991Z,67.24
2016-08-03T05:37:44.288Z,67.14
2016-08-03T05:38:45.845Z,67.82
2016-08-03T05:39:45.058Z,68.1
2016-08-03T05:40:44.357Z,68.3
2016-08-03T05:41:45.017Z,68.2
2016-08-03T05:42:44.317Z,67.43
2016-08-03T05:43:44.325Z,67.91
2016-08-03T05:44:44.330Z,67.91
2016-08-03T05:45:44.335Z,67.33
2016-08-03T05:46:45.049Z,67.82
2016-08-03T05:47:45.104Z,67.24
2016-08-03T05:48:45.108Z,67.43
2016-08-03T05:49:44.356Z,67.62
2016-08-03T05:50:45.073Z,67.91
2016-08-03T05:51:44.368Z,67.43
2016-08-03T05:52:45.081Z,67.43
2016-08-03T05:53:44.378Z,67.43
2016-08-03T05:54:44.436Z,67.24
2016-08-03T05:55:45.095Z,67.24
2016-08-03T05:56:45.104Z,67.33
2016-08-03T05:57:45.111Z,67.62
2016-08-03T05:58:44.763Z,67.24
2016-08-03T05:59:45.123Z,67.43
2016-08-03T06:00:45.133Z,67.52
2016-08-03T06:01:44.421Z,67.43
2016-08-03T06:02:45.135Z,67.43
2016-08-03T06:03:44.436Z,67.14
2016-08-03T06:04:45.148Z,67.14
2016-08-03T06:05:45.150Z,67.52
2016-08-03T06:06:45.159Z,67.52
2016-08-03T06:07:44.458Z,67.52
2016-08-03T06:08:45.168Z,67.33
2016-08-03T06:09:44.666Z,67.72
2016-08-03T06:10:44.472Z,67.43
2016-08-03T06:11:46.162Z,67.33
2016-08-03T06:12:45.192Z,67.14
2016-08-03T06:13:44.487Z,67.72
2016-08-03T06:14:45.200Z,67.91
2016-08-03T06:15:45.204Z,68.2
2016-08-03T06:16:45.211Z,68.01
2016-08-03T06:17:44.509Z,67.72
2016-08-03T06:18:45.234Z,67.33
2016-08-03T06:19:44.521Z,67.43
2016-08-03T06:20:45.681Z,67.33
2016-08-03T06:21:45.293Z,67.04
2016-08-03T06:22:45.243Z,67.33
2016-08-03T06:23:45.248Z,67.82
2016-08-03T06:24:45.254Z,67.72
2016-08-03T06:25:45.259Z,67.14
2016-08-03T06:26:45.266Z,67.33
2016-08-03T06:27:45.270Z,67.43
2016-08-03T06:28:44.566Z,67.82
2016-08-03T06:29:44.577Z,67.14
2016-08-03T06:30:44.582Z,67.33
2016-08-03T06:31:45.082Z,67.14
2016-08-03T06:32:44.640Z,67.14
2016-08-03T06:33:45.303Z,67.33
2016-08-03T06:34:45.360Z,67.24
2016-08-03T06:35:45.314Z,67.04
2016-08-03T06:36:44.613Z,67.14
2016-08-03T06:37:44.617Z,67.33
2016-08-03T06:38:44.675Z,67.52
2016-08-03T06:39:44.626Z,67.33
2016-08-03T06:40:45.342Z,67.82
2016-08-03T06:41:45.345Z,67.04
2016-08-03T06:42:46.051Z,67.33
2016-08-03T06:43:44.651Z,67.43
2016-08-03T06:44:45.362Z,67.33
2016-08-03T06:45:44.659Z,67.82
2016-08-03T06:46:45.374Z,67.72
2016-08-03T06:47:45.379Z,67.72
2016-08-03T06:48:44.679Z,67.43
2016-08-03T06:49:44.680Z,67.43
2016-08-03T06:50:45.394Z,67.43
2016-08-03T06:51:45.398Z,67.24
2016-08-03T06:52:45.406Z,67.14
2016-08-03T06:53:46.210Z,67.33
2016-08-03T06:54:45.418Z,67.33
2016-08-03T06:55:45.114Z,67.04
2016-08-03T06:56:45.426Z,67.91
2016-08-03T06:57:44.723Z,67.14
2016-08-03T06:58:44.729Z,67.43
2016-08-03T06:59:45.454Z,67.33
2016-08-03T07:00:44.740Z,67.43
2016-08-03T07:01:45.453Z,67.43
2016-08-03T07:02:44.753Z,67.52
2016-08-03T07:03:45.467Z,67.24
2016-08-03T07:04:46.269Z,67.33
2016-08-03T07:05:45.477Z,67.24
2016-08-03T07:06:45.483Z,67.14
2016-08-03T07:07:44.783Z,66.94
2016-08-03T07:08:44.786Z,67.43
2016-08-03T07:09:45.502Z,67.43
2016-08-03T07:10:44.849Z,67.52
2016-08-03T07:11:45.510Z,67.24
2016-08-03T07:12:44.810Z,67.52
2016-08-03T07:13:45.524Z,66.85
2016-08-03T07:14:44.820Z,67.33
2016-08-03T07:15:45.825Z,67.33
2016-08-03T07:16:45.538Z,67.33
2016-08-03T07:17:45.587Z,67.14
2016-08-03T07:18:45.549Z,67.33
2016-08-03T07:19:44.850Z,67.43
2016-08-03T07:20:45.562Z,68.2
2016-08-03T07:21:45.564Z,68.2
2016-08-03T07:22:45.571Z,68.4
2016-08-03T07:23:45.578Z,68.49
2016-08-03T07:24:44.874Z,68.2
2016-08-03T07:25:44.888Z,68.4
2016-08-03T07:26:46.016Z,68.4
2016-08-03T07:27:45.600Z,68.4
2016-08-03T07:28:45.804Z,68.2
2016-08-03T07:29:44.904Z,68.4
2016-08-03T07:30:45.616Z,68.2
2016-08-03T07:31:45.621Z,67.52
2016-08-03T07:32:44.917Z,68.2
2016-08-03T07:33:44.928Z,68.59
2016-08-03T07:34:45.652Z,68.3
2016-08-03T07:35:45.641Z,67.91
2016-08-03T07:36:44.946Z,68.01
2016-08-03T07:37:44.948Z,68.2
2016-08-03T07:38:44.952Z,67.72
2016-08-03T07:39:46.109Z,68.4
2016-08-03T07:40:45.671Z,68.2
2016-08-03T07:41:45.675Z,68.3
2016-08-03T07:42:45.681Z,68.01
2016-08-03T07:43:45.687Z,68.2
2016-08-03T07:44:45.689Z,68.01
2016-08-03T07:45:45.696Z,68.2
2016-08-03T07:46:44.995Z,67.82
2016-08-03T07:47:45.101Z,68.49
2016-08-03T07:48:45.006Z,68.2
2016-08-03T07:49:45.717Z,68.01
2016-08-03T07:50:45.017Z,67.62
2016-08-03T07:51:45.029Z,67.82
2016-08-03T07:52:45.031Z,67.72
2016-08-03T07:53:45.743Z,67.72
2016-08-03T07:54:45.750Z,67.91
2016-08-03T07:55:45.045Z,67.62
2016-08-03T07:56:45.056Z,67.72
2016-08-03T07:57:45.965Z,68.01
2016-08-03T07:58:45.771Z,67.82
2016-08-03T07:59:45.081Z,68.2
2016-08-03T08:00:45.786Z,68.3
2016-08-03T08:01:45.082Z,68.01
2016-08-03T08:02:45.793Z,68.1
2016-08-03T08:03:45.800Z,67.72
2016-08-03T08:04:45.098Z,67.72
2016-08-03T08:05:45.811Z,67.52
2016-08-03T08:06:45.820Z,67.33
2016-08-03T08:07:45.118Z,67.62
2016-08-03T08:08:46.238Z,67.91
2016-08-03T08:09:45.835Z,68.01
2016-08-03T08:10:45.842Z,67.72
2016-08-03T08:11:45.847Z,67.72
2016-08-03T08:12:46.855Z,68.01
2016-08-03T08:13:45.859Z,67.62
2016-08-03T08:14:45.159Z,67.82
2016-08-03T08:15:45.163Z,67.91
2016-08-03T08:16:45.220Z,67.91
2016-08-03T08:17:45.882Z,67.52
2016-08-03T08:18:45.939Z,67.62
2016-08-03T08:19:46.347Z,67.72
2016-08-03T08:20:45.905Z,68.3
2016-08-03T08:21:45.908Z,68.1
2016-08-03T08:22:45.928Z,68.1
2016-08-03T08:23:45.213Z,68.2
2016-08-03T08:24:45.222Z,68.01
2016-08-03T08:25:45.934Z,67.91
2016-08-03T08:26:45.234Z,68.01
2016-08-03T08:27:45.288Z,67.91
2016-08-03T08:28:45.951Z,67.91
2016-08-03T08:29:45.960Z,67.82
2016-08-03T08:30:46.208Z,67.91
2016-08-03T08:31:45.265Z,67.91
2016-08-03T08:32:45.976Z,68.3
2016-08-03T08:33:45.980Z,67.72
2016-08-03T08:34:45.284Z,68.01
2016-08-03T08:35:45.286Z,67.82
2016-08-03T08:36:45.996Z,67.72
2016-08-03T08:37:45.299Z,68.2
2016-08-03T08:38:46.012Z,67.82
2016-08-03T08:39:45.363Z,68.01
2016-08-03T08:40:45.324Z,67.91
2016-08-03T08:41:46.421Z,67.82
2016-08-03T08:42:45.327Z,67.82
2016-08-03T08:43:46.034Z,67.91
2016-08-03T08:44:46.099Z,67.43
2016-08-03T08:45:46.054Z,67.82
2016-08-03T08:46:46.058Z,67.24
2016-08-03T08:47:46.063Z,67.04
2016-08-03T08:48:45.361Z,67.24
2016-08-03T08:49:46.072Z,67.14
2016-08-03T08:50:46.081Z,67.08
2016-08-03T08:51:45.378Z,67.91
2016-08-03T08:52:46.523Z,67.52
2016-08-03T08:53:45.392Z,67.72
2016-08-03T08:54:46.298Z,67.72
2016-08-03T08:55:46.112Z,67.52
2016-08-03T08:56:46.116Z,67.33
2016-08-03T08:57:46.122Z,67.04
2016-08-03T08:58:46.127Z,67.33
2016-08-03T08:59:45.476Z,67.43
2016-08-03T09:00:46.187Z,67.43
2016-08-03T09:01:46.145Z,67.43
2016-08-03T09:02:46.153Z,67.04
2016-08-03T09:03:46.936Z,66.85
2016-08-03T09:04:46.163Z,67.04
2016-08-03T09:05:46.819Z,66.4
2016-08-03T09:06:45.517Z,66.66
2016-08-03T09:07:45.473Z,66.5
2016-08-03T09:08:46.246Z,66.66
2016-08-03T09:09:46.192Z,66.66
2016-08-03T09:10:46.197Z,66.36
2016-08-03T09:11:46.203Z,66.27
2016-08-03T09:12:46.209Z,66.66
2016-08-03T09:13:46.217Z,66.75
2016-08-03T09:14:45.511Z,66.46
2016-08-03T09:15:46.228Z,66.88
2016-08-03T09:16:45.526Z,66.36
2016-08-03T09:17:45.535Z,66.75
2016-08-03T09:18:45.586Z,66.85
2016-08-03T09:19:45.542Z,66.36
2016-08-03T09:20:46.256Z,66.66
2016-08-03T09:21:45.553Z,66.56
2016-08-03T09:22:45.571Z,66.27
2016-08-03T09:23:46.276Z,66.17
2016-08-03T09:24:46.277Z,66.4
2016-08-03T09:25:46.286Z,66.59
2016-08-03T09:26:46.289Z,67.17
2016-08-03T09:27:45.591Z,67.14
2016-08-03T09:28:45.598Z,67.24
2016-08-03T09:29:46.308Z,67.43
2016-08-03T09:30:46.313Z,67.36
2016-08-03T09:31:46.370Z,67.33
2016-08-03T09:32:45.619Z,67.33
2016-08-03T09:33:46.335Z,67.52
2016-08-03T09:34:46.336Z,67.46
2016-08-03T09:35:46.344Z,67.33
2016-08-03T09:36:46.346Z,67.24
2016-08-03T09:37:45.643Z,67.33
2016-08-03T09:38:45.652Z,66.85
2016-08-03T09:39:47.414Z,66.66
2016-08-03T09:40:45.663Z,67.04
2016-08-03T09:41:46.375Z,66.75
2016-08-03T09:42:46.384Z,66.36
2016-08-03T09:43:45.679Z,67.04
2016-08-03T09:44:46.394Z,66.94
2016-08-03T09:45:46.398Z,66.85
2016-08-03T09:46:46.410Z,66.94
2016-08-03T09:47:46.115Z,67.43
2016-08-03T09:48:45.711Z,66.85
2016-08-03T09:49:46.420Z,67.33
2016-08-03T09:50:45.723Z,66.85
2016-08-03T09:51:45.778Z,66.59
2016-08-03T09:52:46.437Z,66.46
2016-08-03T09:53:46.445Z,66.59
2016-08-03T09:54:46.708Z,66.85
2016-08-03T09:55:46.457Z,66.75
2016-08-03T09:56:45.758Z,66.85
2016-08-03T09:57:46.470Z,66.5
2016-08-03T09:58:46.469Z,66.36
2016-08-03T09:59:46.479Z,66.4
2016-08-03T10:00:45.780Z,66.56
2016-08-03T10:01:45.786Z,66.88
2016-08-03T10:02:46.498Z,66.11
2016-08-03T10:03:46.504Z,66.36
2016-08-03T10:04:46.509Z,66.66
2016-08-03T10:05:45.811Z,66.66
2016-08-03T10:06:45.815Z,66.85
2016-08-03T10:07:45.819Z,66.66
2016-08-03T10:08:46.534Z,66.3
2016-08-03T10:09:46.938Z,66.69
2016-08-03T10:10:46.547Z,66.59
2016-08-03T10:11:46.753Z,66.66
2016-08-03T10:12:46.559Z,66.4
2016-08-03T10:13:45.856Z,66.4
2016-08-03T10:14:46.573Z,66.5
2016-08-03T10:15:46.575Z,66.85
2016-08-03T10:16:46.582Z,66.36
2016-08-03T10:17:46.686Z,66.3
2016-08-03T10:18:46.645Z,66.5
2016-08-03T10:19:46.702Z,66.85
2016-08-03T10:20:47.457Z,66.75
2016-08-03T10:21:46.659Z,66.94
2016-08-03T10:22:47.073Z,66.75
2016-08-03T10:23:46.621Z,67.14
2016-08-03T10:24:45.923Z,67.17
2016-08-03T10:25:46.634Z,67.14
2016-08-03T10:26:46.640Z,67.36
2016-08-03T10:27:46.648Z,67.17
2016-08-03T10:28:45.948Z,67.24
2016-08-03T10:29:45.955Z,67.43
2016-08-03T10:30:46.714Z,67.46
2016-08-03T10:31:45.964Z,67.43
2016-08-03T10:32:45.970Z,67.43
2016-08-03T10:33:46.676Z,67.33
2016-08-03T10:34:45.983Z,67.27
2016-08-03T10:35:46.695Z,67.36
2016-08-03T10:36:45.993Z,66.98
2016-08-03T10:37:46.704Z,67.36
2016-08-03T10:38:46.715Z,67.36
2016-08-03T10:39:46.016Z,67.36
2016-08-03T10:40:46.721Z,67.66
2016-08-03T10:41:46.730Z,67.36
2016-08-03T10:42:46.738Z,67.27
2016-08-03T10:43:46.741Z,67.17
2016-08-03T10:44:47.798Z,67.36
2016-08-03T10:45:46.753Z,67.94
2016-08-03T10:46:46.762Z,67.56
2016-08-03T10:47:46.114Z,67.36
2016-08-03T10:48:46.773Z,67.94
2016-08-03T10:49:46.070Z,67.33
2016-08-03T10:50:46.787Z,67.82
2016-08-03T10:51:46.084Z,67.36
2016-08-03T10:52:46.141Z,67.33
2016-08-03T10:53:46.802Z,67.91
2016-08-03T10:54:46.807Z,67.75
2016-08-03T10:55:46.157Z,68.01
2016-08-03T10:56:46.112Z,67.82
2016-08-03T10:57:46.119Z,67.62
2016-08-03T10:58:46.828Z,67.56
2016-08-03T10:59:46.231Z,68.88
2016-08-03T11:00:46.843Z,68.2
2016-08-03T11:01:46.140Z,68.1
2016-08-03T11:02:46.851Z,67.56
2016-08-03T11:03:46.861Z,67.62
2016-08-03T11:04:47.020Z,68.14
2016-08-03T11:05:46.166Z,67.82
2016-08-03T11:06:46.879Z,67.91
2016-08-03T11:07:46.188Z,67.91
2016-08-03T11:08:46.890Z,67.56
2016-08-03T11:09:46.187Z,67.91
2016-08-03T11:10:46.192Z,67.52
2016-08-03T11:11:46.907Z,67.75
2016-08-03T11:12:46.211Z,68.24
2016-08-03T11:13:46.212Z,68.1
2016-08-03T11:14:46.925Z,67.62
2016-08-03T11:15:46.672Z,67.27
2016-08-03T11:16:46.236Z,67.85
2016-08-03T11:17:46.943Z,67.56
2016-08-03T11:18:46.948Z,67.94
2016-08-03T11:19:46.956Z,67.85
2016-08-03T11:20:46.959Z,67.94
2016-08-03T11:21:46.259Z,68.14
2016-08-03T11:22:46.971Z,68.59
2016-08-03T11:23:46.975Z,68.59
2016-08-03T11:24:46.984Z,68.43
2016-08-03T11:25:47.035Z,68.88
2016-08-03T11:26:47.750Z,68.59
2016-08-03T11:27:47.001Z,68.3
2016-08-03T11:28:47.008Z,68.43
2016-08-03T11:29:47.012Z,68.33
2016-08-03T11:30:47.014Z,68.49
2016-08-03T11:31:47.032Z,68.24
2016-08-03T11:32:47.028Z,68.62
2016-08-03T11:33:47.033Z,68.43
2016-08-03T11:34:47.038Z,68.1
2016-08-03T11:35:46.344Z,68.43
2016-08-03T11:36:46.395Z,68.3
2016-08-03T11:37:47.448Z,68.3
2016-08-03T11:38:47.062Z,68.2
2016-08-03T11:39:47.224Z,68.98
2016-08-03T11:40:47.075Z,68.88
2016-08-03T11:41:46.423Z,69.17
2016-08-03T11:42:47.086Z,69.07
2016-08-03T11:43:47.091Z,68.82
2016-08-03T11:44:47.096Z,69.07
2016-08-03T11:45:47.102Z,69.07
2016-08-03T11:46:46.401Z,69.46
2016-08-03T11:47:47.169Z,69.17
2016-08-03T11:48:46.412Z,68.78
2016-08-03T11:49:46.418Z,68.82
2016-08-03T11:50:47.379Z,68.88
2016-08-03T11:51:47.135Z,69.17
2016-08-03T11:52:47.143Z,69.26
2016-08-03T11:53:47.148Z,68.98
2016-08-03T11:54:47.153Z,69.07
2016-08-03T11:55:46.451Z,69.84
2016-08-03T11:56:47.165Z,69.94
2016-08-03T11:57:47.172Z,69.46
2016-08-03T11:58:46.472Z,69.46
2016-08-03T11:59:48.099Z,69.07
2016-08-03T12:00:47.185Z,68.82
2016-08-03T12:01:47.942Z,68.91
2016-08-03T12:02:46.491Z,68.88
2016-08-03T12:03:47.254Z,68.88
2016-08-03T12:04:47.210Z,68.78
2016-08-03T12:05:46.506Z,69.56
2016-08-03T12:06:47.220Z,69.01
2016-08-03T12:07:46.519Z,68.91
2016-08-03T12:08:46.526Z,69.01
2016-08-03T12:09:46.581Z,69.07
2016-08-03T12:10:47.298Z,69.36
2016-08-03T12:11:47.247Z,69.26
2016-08-03T12:12:46.546Z,68.82
2016-08-03T12:13:46.553Z,69.36
2016-08-03T12:14:46.563Z,69.88
2016-08-03T12:15:47.272Z,69.94
2016-08-03T12:16:46.569Z,69.2
2016-08-03T12:17:47.284Z,69.84
2016-08-03T12:18:46.580Z,69.26
2016-08-03T12:19:47.293Z,69.17
2016-08-03T12:20:46.595Z,69.26
2016-08-03T12:21:47.305Z,68.68
2016-08-03T12:22:46.604Z,69.36
2016-08-03T12:23:46.609Z,69.07
2016-08-03T12:24:47.323Z,69.01
2016-08-03T12:25:46.621Z,68.82
2016-08-03T12:26:47.335Z,69.84
2016-08-03T12:27:46.631Z,69.17
2016-08-03T12:28:47.345Z,69.2
2016-08-03T12:29:47.348Z,68.78
2016-08-03T12:30:47.356Z,69.01
2016-08-03T12:31:47.414Z,69.36
2016-08-03T12:32:47.367Z,68.88
2016-08-03T12:33:46.668Z,68.72
2016-08-03T12:34:47.384Z,69.3
2016-08-03T12:35:47.435Z,69.17
2016-08-03T12:36:47.400Z,69.01
2016-08-03T12:37:47.406Z,68.82
2016-08-03T12:38:47.403Z,68.98
2016-08-03T12:39:46.703Z,69.36
2016-08-03T12:40:47.415Z,69.17
2016-08-03T12:41:47.418Z,69.56
2016-08-03T12:42:47.425Z,69.46
2016-08-03T12:43:47.781Z,69.4
2016-08-03T12:44:47.435Z,69.49
2016-08-03T12:45:47.447Z,69.56
2016-08-03T12:46:47.446Z,69.46
2016-08-03T12:47:47.450Z,69.56
2016-08-03T12:48:46.752Z,68.78
2016-08-03T12:49:46.757Z,69.56
2016-08-03T12:50:47.466Z,69.46
2016-08-03T12:51:47.484Z,68.82
2016-08-03T12:52:46.835Z,68.98
2016-08-03T12:53:47.486Z,69.56
2016-08-03T12:54:46.836Z,69.56
2016-08-03T12:55:46.790Z,69.46
2016-08-03T12:56:47.804Z,68.78
2016-08-03T12:57:46.803Z,69.56